createdAt,value
2024-02-04T00:02:59.300Z,12.50
2024-02-04T00:06:01.967Z,11.98
2024-02-04T00:09:05.713Z,14.02
2024-02-04T00:12:08.316Z,18.80
2024-02-04T00:15:11.245Z,12.85
2024-02-04T00:18:13.700Z,15.02
2024-02-04T00:21:16.054Z,12.38
2024-02-04T00:24:20.047Z,27.48
2024-02-04T00:27:22.552Z,15.82
2024-02-04T00:30:25.226Z,21.35
2024-02-04T00:33:27.706Z,15.30
2024-02-04T00:36:30.191Z,19.15
2024-02-04T00:39:32.612Z,18.63
2024-02-04T00:42:35.040Z,16.50
2024-02-04T00:45:57.888Z,13.70
2024-02-04T00:49:00.637Z,16.38
2024-02-04T00:52:03.214Z,13.60
2024-02-04T00:55:06.014Z,13.40
2024-02-04T00:58:08.280Z,13.05
2024-02-04T01:01:10.539Z,15.65
2024-02-04T01:04:13.412Z,12.25
2024-02-04T01:07:15.692Z,34.22
2024-02-04T01:10:18.071Z,18.10
2024-02-04T01:13:20.424Z,16.83
2024-02-04T01:16:22.756Z,13.93
2024-02-04T01:19:25.138Z,17.98
2024-02-04T01:22:28.450Z,19.67
2024-02-04T01:25:30.544Z,19.67
2024-02-04T01:28:33.316Z,19.70
2024-02-04T01:31:35.783Z,21.65
2024-02-04T01:34:38.264Z,23.33
2024-02-04T01:37:40.644Z,19.70
2024-02-04T01:40:43.109Z,20.23
2024-02-04T01:43:45.461Z,16.42
2024-02-04T01:46:47.795Z,16.27
2024-02-04T01:52:53.768Z,15.77
2024-02-04T01:55:57.063Z,17.05
2024-02-04T01:59:00.748Z,15.38
2024-02-04T02:02:03.064Z,16.60
2024-02-04T02:05:06.276Z,15.40
2024-02-04T02:08:08.990Z,14.43
2024-02-04T02:11:41.418Z,13.85
2024-02-04T02:14:47.801Z,14.60
2024-02-04T02:18:03.323Z,13.88
2024-02-04T02:21:22.298Z,13.80
2024-02-04T02:24:24.684Z,16.42
2024-02-04T02:27:27.557Z,15.07
2024-02-04T02:30:29.969Z,15.20
2024-02-04T02:33:32.326Z,19.42
2024-02-04T02:36:47.152Z,14.45
2024-02-04T02:40:13.952Z,19.17
2024-02-04T02:43:17.182Z,16.80
2024-02-04T02:46:20.967Z,16.58
2024-02-04T02:49:23.107Z,19.30
2024-02-04T02:52:25.562Z,17.88
2024-02-04T02:55:27.717Z,15.65
2024-02-04T02:58:29.805Z,18.30
2024-02-04T03:01:32.477Z,17.00
2024-02-04T03:04:35.092Z,19.75
2024-02-04T03:07:37.259Z,16.08
2024-02-04T03:10:39.305Z,18.10
2024-02-04T03:13:41.685Z,19.23
2024-02-04T03:16:47.029Z,19.27
2024-02-04T03:19:50.201Z,16.33
2024-02-04T03:22:52.674Z,17.08
2024-02-04T03:25:54.779Z,16.50
2024-02-04T03:28:56.905Z,20.02
2024-02-04T03:31:59.093Z,16.15
2024-02-04T03:35:02.411Z,17.25
2024-02-04T03:38:05.005Z,21.77
2024-02-04T03:41:08.478Z,23.40
2024-02-04T03:44:10.773Z,20.08
2024-02-04T03:47:12.870Z,22.25
2024-02-04T03:50:15.287Z,21.30
2024-02-04T03:53:17.368Z,21.58
2024-02-04T03:56:19.831Z,22.30
2024-02-04T03:59:22.154Z,20.63
2024-02-04T04:02:24.514Z,18.10
2024-02-04T04:05:27.744Z,20.25
2024-02-04T04:08:29.964Z,20.55
2024-02-04T04:11:33.445Z,22.63
2024-02-04T04:14:35.705Z,16.77
2024-02-04T04:17:38.087Z,19.13
2024-02-04T04:20:41.005Z,17.83
2024-02-04T04:23:43.106Z,19.35
2024-02-04T04:26:45.158Z,17.88
2024-02-04T04:29:47.270Z,19.13
2024-02-04T04:32:49.877Z,16.80
2024-02-04T04:35:52.067Z,14.60
2024-02-04T04:38:54.078Z,15.95
2024-02-04T04:41:56.395Z,15.48
2024-02-04T04:44:58.778Z,16.98
2024-02-04T04:48:01.347Z,15.93
2024-02-04T04:51:03.783Z,14.80
2024-02-04T04:54:06.110Z,28.30
2024-02-04T04:57:08.144Z,17.02
2024-02-04T05:00:12.118Z,16.67
2024-02-04T05:03:14.513Z,20.25
2024-02-04T05:06:16.583Z,22.48
2024-02-04T05:09:18.715Z,22.55
2024-02-04T05:12:21.124Z,25.45
2024-02-04T05:15:23.514Z,28.38
2024-02-04T05:18:28.253Z,25.73
2024-02-04T05:21:30.784Z,30.50
2024-02-04T05:24:33.092Z,25.85
2024-02-04T05:27:36.125Z,34.25
2024-02-04T05:30:39.404Z,28.73
2024-02-04T05:33:41.931Z,28.63
2024-02-04T05:36:44.332Z,29.08
2024-02-04T05:39:46.461Z,22.55
2024-02-04T05:42:48.676Z,23.52
2024-02-04T05:45:51.182Z,23.17
2024-02-04T05:48:53.682Z,31.05
2024-02-04T05:51:55.994Z,28.45
2024-02-04T05:55:00.028Z,23.10
2024-02-04T05:58:04.755Z,17.35
2024-02-04T06:01:07.227Z,18.83
2024-02-04T06:04:09.688Z,19.98
2024-02-04T06:07:11.848Z,18.77
2024-02-04T06:10:14.019Z,20.35
2024-02-04T06:13:16.434Z,17.17
2024-02-04T06:16:18.798Z,20.80
2024-02-04T06:19:20.958Z,20.55
2024-02-04T06:22:23.412Z,17.85
2024-02-04T06:25:25.851Z,23.75
2024-02-04T06:28:28.275Z,23.27
2024-02-04T06:31:30.344Z,27.30
2024-02-04T06:34:32.471Z,43.85
2024-02-04T06:37:34.779Z,36.88
2024-02-04T06:40:37.099Z,21.35
2024-02-04T06:43:39.611Z,19.67
2024-02-04T06:46:42.026Z,18.05
2024-02-04T06:49:47.604Z,18.25
2024-02-04T06:52:50.073Z,19.50
2024-02-04T06:55:52.504Z,21.33
2024-02-04T06:58:54.566Z,21.88
2024-02-04T07:01:57.018Z,25.80
2024-02-04T07:04:59.220Z,23.73
2024-02-04T07:08:01.607Z,18.60
2024-02-04T07:11:04.675Z,21.85
2024-02-04T07:14:07.505Z,25.05
2024-02-04T07:17:09.589Z,25.10
2024-02-04T07:20:11.998Z,27.50
2024-02-04T07:23:14.124Z,26.00
2024-02-04T07:26:16.253Z,28.05
2024-02-04T07:29:18.626Z,33.88
2024-02-04T07:32:20.635Z,43.97
2024-02-04T07:35:23.186Z,50.08
2024-02-04T07:38:25.292Z,54.55
2024-02-04T07:41:27.895Z,67.47
2024-02-04T07:44:30.782Z,75.55
2024-02-04T07:47:32.916Z,75.80
2024-02-04T07:50:35.242Z,76.43
2024-02-04T07:53:37.587Z,77.82
2024-02-04T07:56:39.678Z,75.30
2024-02-04T07:59:42.014Z,71.40
2024-02-04T08:02:46.514Z,65.35
2024-02-04T08:05:48.898Z,69.45
2024-02-04T08:08:52.085Z,60.78
2024-02-04T08:11:55.961Z,62.05
2024-02-04T08:14:59.435Z,66.43
2024-02-04T08:18:03.538Z,87.80
2024-02-04T08:21:09.407Z,70.22
2024-02-04T08:24:11.668Z,80.80
2024-02-04T08:27:17.187Z,77.88
2024-02-04T08:30:20.060Z,81.28
2024-02-04T08:33:22.591Z,86.93
2024-02-04T08:36:25.215Z,102.63
2024-02-04T08:39:28.019Z,101.22
2024-02-04T08:42:30.328Z,56.97
2024-02-04T08:45:32.692Z,55.47
2024-02-04T08:48:34.858Z,55.55
2024-02-04T08:51:37.337Z,54.67
2024-02-04T08:54:39.804Z,57.63
2024-02-04T08:57:42.054Z,57.17
2024-02-04T09:00:44.510Z,65.13
2024-02-04T09:03:46.698Z,62.58
2024-02-04T09:06:49.310Z,60.00
2024-02-04T09:09:51.454Z,59.85
2024-02-04T09:12:53.839Z,57.95
2024-02-04T09:15:56.116Z,65.85
2024-02-04T09:18:58.366Z,59.17
2024-02-04T09:22:02.622Z,60.28
2024-02-04T09:25:05.278Z,57.65
2024-02-04T09:28:07.779Z,52.63
2024-02-04T09:31:10.926Z,55.95
2024-02-04T09:34:13.819Z,58.63
2024-02-04T09:37:17.514Z,61.55
2024-02-04T09:40:23.493Z,57.75
2024-02-04T09:43:26.491Z,55.50
2024-02-04T09:46:29.157Z,52.13
2024-02-04T09:49:32.789Z,54.80
2024-02-04T09:52:39.098Z,54.80
2024-02-04T09:55:43.114Z,52.95
2024-02-04T09:58:46.808Z,65.45
2024-02-04T10:01:49.797Z,57.47
2024-02-04T10:04:52.631Z,53.72
2024-02-04T10:07:55.422Z,58.20
2024-02-04T10:11:01.869Z,50.63
2024-02-04T10:14:04.280Z,50.45
2024-02-04T10:17:06.586Z,53.40
2024-02-04T10:20:11.997Z,53.78
2024-02-04T10:23:14.616Z,52.70
2024-02-04T10:26:17.882Z,55.63
2024-02-04T10:29:20.304Z,56.22
2024-02-04T10:32:25.703Z,55.08
2024-02-04T10:35:28.635Z,58.78
2024-02-04T10:38:32.011Z,46.10
2024-02-04T10:41:35.818Z,45.58
2024-02-04T10:44:38.668Z,43.13
2024-02-04T10:47:42.055Z,44.28
2024-02-04T10:50:47.984Z,43.55
2024-02-04T10:53:52.480Z,43.08
2024-02-04T10:57:02.492Z,40.65
2024-02-04T11:00:10.391Z,42.40
2024-02-04T11:03:13.773Z,44.63
2024-02-04T11:06:16.269Z,47.58
2024-02-04T11:09:19.989Z,46.55
2024-02-04T11:12:24.052Z,48.00
2024-02-04T11:15:31.774Z,43.63
2024-02-04T11:18:51.253Z,44.15
2024-02-04T11:21:59.527Z,43.75
2024-02-04T11:25:29.730Z,41.63
2024-02-04T11:28:33.234Z,45.35
2024-02-04T11:31:35.539Z,42.95
2024-02-04T11:34:37.938Z,45.17
2024-02-04T11:37:43.737Z,45.25
2024-02-04T11:40:47.468Z,44.35
2024-02-04T11:43:57.338Z,45.83
2024-02-04T11:47:01.923Z,45.17
2024-02-04T11:50:05.043Z,44.60
2024-02-04T11:53:13.320Z,45.55
2024-02-04T11:56:15.765Z,44.28
2024-02-04T11:59:19.193Z,51.03
2024-02-04T12:02:21.916Z,56.75
2024-02-04T12:05:24.119Z,58.55
2024-02-04T12:08:28.758Z,53.38
2024-02-04T12:11:31.395Z,59.08
2024-02-04T12:14:40.123Z,54.97
2024-02-04T12:17:42.849Z,52.08
2024-02-04T12:20:44.974Z,53.42
2024-02-04T12:23:47.625Z,46.80
2024-02-04T12:26:49.824Z,42.78
2024-02-04T12:29:53.658Z,40.30
2024-02-04T12:33:03.045Z,37.25
2024-02-04T12:36:05.406Z,39.13
2024-02-04T12:39:11.134Z,34.83
2024-02-04T12:42:21.157Z,38.95
2024-02-04T12:45:27.854Z,36.97
2024-02-04T12:48:30.387Z,34.30
2024-02-04T12:51:38.986Z,36.15
2024-02-04T12:54:45.269Z,38.03
2024-02-04T12:57:47.318Z,33.58
2024-02-04T13:00:49.675Z,33.88
2024-02-04T13:03:52.168Z,30.27
2024-02-04T13:06:54.436Z,30.58
2024-02-04T13:10:03.254Z,29.85
2024-02-04T13:13:11.970Z,29.60
2024-02-04T13:16:14.593Z,31.38
2024-02-04T13:19:17.109Z,29.63
2024-02-04T13:22:19.549Z,29.45
2024-02-04T13:25:26.054Z,26.42
2024-02-04T13:28:29.232Z,28.33
2024-02-04T13:31:32.740Z,27.15
2024-02-04T13:34:35.082Z,34.38
2024-02-04T13:37:39.983Z,32.70
2024-02-04T13:40:42.160Z,29.85
2024-02-04T13:43:45.178Z,28.73
2024-02-04T13:46:47.195Z,29.27
2024-02-04T13:49:49.779Z,30.23
2024-02-04T13:52:52.232Z,30.98
2024-02-04T13:55:56.844Z,31.55
2024-02-04T13:59:00.971Z,30.65
2024-02-04T14:02:04.071Z,35.28
2024-02-04T14:05:07.289Z,34.58
2024-02-04T14:08:10.438Z,35.90
2024-02-04T14:11:12.556Z,36.50
2024-02-04T14:14:15.100Z,35.83
2024-02-04T14:17:17.562Z,32.35
2024-02-04T14:20:19.691Z,33.13
2024-02-04T14:23:21.782Z,33.45
2024-02-04T14:26:24.182Z,32.58
2024-02-04T14:29:30.306Z,33.13
2024-02-04T14:32:32.491Z,38.60
2024-02-04T14:35:34.738Z,34.55
2024-02-04T14:38:39.960Z,41.47
2024-02-04T14:41:42.824Z,44.47
2024-02-04T14:44:45.536Z,50.90
2024-02-04T14:47:47.739Z,39.72
2024-02-04T14:50:50.525Z,37.08
2024-02-04T14:53:52.638Z,38.60
2024-02-04T14:56:54.732Z,38.15
2024-02-04T14:59:56.951Z,43.08
2024-02-04T15:03:06.524Z,38.83
2024-02-04T15:06:08.976Z,39.33
2024-02-04T15:09:11.264Z,40.08
2024-02-04T15:12:15.661Z,39.92
2024-02-04T15:15:18.310Z,42.88
2024-02-04T15:18:20.954Z,40.35
2024-02-04T15:21:25.450Z,78.13
2024-02-04T15:24:28.055Z,41.58
2024-02-04T15:27:30.568Z,72.20
2024-02-04T15:30:33.025Z,39.67
2024-02-04T15:33:36.112Z,42.22
2024-02-04T15:36:38.563Z,37.97
2024-02-04T15:39:41.180Z,34.88
2024-02-04T15:42:43.876Z,36.17
2024-02-04T15:45:47.859Z,34.50
2024-02-04T15:48:53.636Z,34.15
2024-02-04T15:51:56.010Z,34.70
2024-02-04T15:54:58.746Z,31.95
2024-02-04T15:58:04.455Z,37.63
2024-02-04T16:01:17.009Z,38.80
2024-02-04T16:04:20.086Z,44.80
2024-02-04T16:07:27.546Z,39.42
2024-02-04T16:10:30.422Z,79.97
2024-02-04T16:13:34.817Z,54.40
2024-02-04T16:16:42.459Z,53.15
2024-02-04T16:19:46.361Z,43.05
2024-02-04T16:22:49.953Z,96.68
2024-02-04T16:25:52.976Z,66.63
2024-02-04T16:28:55.192Z,43.35
2024-02-04T16:31:57.922Z,47.78
2024-02-04T16:35:00.913Z,42.15
2024-02-04T16:38:04.714Z,40.25
2024-02-04T16:41:09.010Z,40.03
2024-02-04T16:44:15.245Z,42.38
2024-02-04T16:47:17.489Z,52.53
2024-02-04T16:50:19.913Z,49.95
2024-02-04T16:53:22.402Z,48.30
2024-02-04T16:56:25.095Z,49.38
2024-02-04T16:59:27.548Z,39.58
2024-02-04T17:02:29.690Z,40.30
2024-02-04T17:05:42.084Z,48.40
2024-02-04T17:08:53.846Z,47.97
2024-02-04T17:11:58.787Z,50.75
2024-02-04T17:15:02.094Z,53.58
2024-02-04T17:18:09.520Z,62.72
2024-02-04T17:21:12.281Z,54.70
2024-02-04T17:24:27.266Z,59.22
2024-02-04T17:27:32.414Z,89.75
2024-02-04T17:30:35.302Z,57.80
2024-02-04T17:33:37.783Z,63.42
2024-02-04T17:36:41.208Z,60.05
2024-02-04T17:39:43.995Z,61.28
2024-02-04T17:42:46.705Z,48.63
2024-02-04T17:45:49.412Z,55.30
2024-02-04T17:48:52.448Z,49.22
2024-02-04T17:51:55.853Z,46.38
2024-02-04T17:54:59.636Z,71.68
2024-02-04T17:58:04.947Z,45.17
2024-02-04T18:01:07.829Z,40.17
2024-02-04T18:04:10.598Z,40.95
2024-02-04T18:07:13.481Z,51.30
2024-02-04T18:10:16.208Z,66.28
2024-02-04T18:13:19.013Z,48.22
2024-02-04T18:16:23.701Z,53.33
2024-02-04T18:19:26.038Z,58.08
2024-02-04T18:22:28.251Z,58.53
2024-02-04T18:25:30.369Z,53.20
2024-02-04T18:28:33.352Z,47.22
2024-02-04T18:31:35.488Z,51.78
2024-02-04T18:34:37.769Z,55.05
2024-02-04T18:37:40.333Z,57.35
2024-02-04T18:40:42.508Z,66.78
2024-02-04T18:43:46.237Z,59.17
2024-02-04T18:46:49.342Z,53.58
2024-02-04T18:49:56.016Z,41.50
2024-02-04T18:52:58.866Z,65.03
2024-02-04T18:56:04.361Z,63.58
2024-02-04T18:59:07.102Z,50.17
2024-02-04T19:02:09.720Z,56.00
2024-02-04T19:05:12.618Z,49.60
2024-02-04T19:08:15.626Z,47.65
2024-02-04T19:11:17.804Z,40.88
2024-02-04T19:14:22.463Z,38.45
2024-02-04T19:17:25.329Z,43.45
2024-02-04T19:20:27.737Z,51.38
2024-02-04T19:23:30.332Z,45.45
2024-02-04T19:26:34.353Z,47.10
2024-02-04T19:29:37.100Z,44.28
2024-02-04T19:32:39.872Z,39.35
2024-02-04T19:35:42.060Z,41.47
2024-02-04T19:38:44.385Z,45.00
2024-02-04T19:41:46.820Z,46.20
2024-02-04T19:44:49.495Z,37.90
2024-02-04T19:47:52.249Z,36.20
2024-02-04T19:50:55.030Z,38.45
2024-02-04T19:53:57.695Z,39.25
2024-02-04T19:56:59.846Z,43.17
2024-02-04T20:00:02.500Z,46.83
2024-02-04T20:03:07.361Z,42.42
2024-02-04T20:06:11.142Z,37.97
2024-02-04T20:09:15.252Z,49.50
2024-02-04T20:12:18.377Z,49.38
2024-02-04T20:15:25.633Z,44.10
2024-02-04T20:18:27.883Z,45.30
2024-02-04T20:21:30.211Z,42.30
2024-02-04T20:24:32.793Z,43.50
2024-02-04T20:27:36.832Z,43.40
2024-02-04T20:30:39.065Z,45.88
2024-02-04T20:33:44.532Z,45.08
2024-02-04T20:36:47.147Z,51.60
2024-02-04T20:39:49.500Z,53.35
2024-02-04T20:42:52.963Z,63.15
2024-02-04T20:45:56.012Z,54.08
2024-02-04T20:48:58.845Z,52.13
2024-02-04T20:52:01.360Z,54.08
2024-02-04T20:55:03.838Z,53.42
2024-02-04T20:58:06.232Z,58.50
2024-02-04T21:01:08.607Z,56.60
2024-02-04T21:04:10.850Z,58.90
2024-02-04T21:07:13.371Z,55.08
2024-02-04T21:10:16.003Z,51.45
2024-02-04T21:13:18.636Z,53.08
2024-02-04T21:16:21.234Z,57.70
2024-02-04T21:19:24.230Z,47.88
2024-02-04T21:22:27.092Z,52.25
2024-02-04T21:25:29.349Z,47.20
2024-02-04T21:28:32.150Z,48.03
2024-02-04T21:31:34.488Z,45.25
2024-02-04T21:34:36.723Z,47.33
2024-02-04T21:37:39.966Z,48.05
2024-02-04T21:40:44.469Z,52.22
2024-02-04T21:43:46.593Z,49.03
2024-02-04T21:46:49.445Z,50.00
2024-02-04T21:49:51.854Z,52.08
2024-02-04T21:52:53.899Z,52.10
2024-02-04T21:55:56.759Z,51.80
2024-02-04T21:58:59.126Z,48.97
2024-02-04T22:02:01.610Z,53.92
2024-02-04T22:05:04.302Z,47.15
2024-02-04T22:08:07.798Z,47.95
2024-02-04T22:11:10.174Z,49.15
2024-02-04T22:14:12.595Z,53.42
2024-02-04T22:17:14.917Z,48.45
2024-02-04T22:20:17.460Z,51.13
2024-02-04T22:23:19.914Z,49.97
2024-02-04T22:26:22.294Z,47.42
2024-02-04T22:29:24.374Z,40.05
2024-02-04T22:32:26.839Z,45.58
2024-02-04T22:35:29.329Z,46.78
2024-02-04T22:38:31.461Z,48.45
2024-02-04T22:41:33.669Z,52.20
2024-02-04T22:44:35.720Z,57.25
2024-02-04T22:47:38.558Z,54.00
2024-02-04T22:50:41.950Z,53.42
2024-02-04T22:53:44.370Z,58.85
2024-02-04T22:56:46.941Z,49.72
2024-02-04T22:59:48.974Z,54.85
2024-02-04T23:02:50.988Z,69.25
2024-02-04T23:05:53.343Z,56.25
2024-02-04T23:08:56.109Z,53.47
2024-02-04T23:11:59.482Z,50.55
2024-02-04T23:15:01.874Z,51.63
2024-02-04T23:18:04.897Z,93.80
2024-02-04T23:21:07.837Z,71.65
2024-02-04T23:24:10.259Z,52.90
2024-02-04T23:27:12.601Z,63.53
2024-02-04T23:30:15.097Z,64.25
2024-02-04T23:33:17.541Z,84.43
2024-02-04T23:36:19.976Z,61.47
2024-02-04T23:39:22.675Z,63.50
2024-02-04T23:42:24.766Z,56.53
2024-02-04T23:45:27.728Z,52.00
2024-02-04T23:48:30.183Z,143.80
2024-02-04T23:51:32.562Z,96.53
2024-02-04T23:54:35.507Z,69.22
2024-02-04T23:57:38.305Z,69.30
